sensor_id;sensor_type;location;lat;lon;timestamp;P1;durP1;ratioP1;P2;durP2;ratioP2
15553;SDS011;7878;44.632;10.942;2023-02-13T00:02:13;56.00;;;37.90;;
15553;SDS011;7878;44.632;10.942;2023-02-13T00:04:39;55.90;;;38.23;;
15553;SDS011;7878;44.632;10.942;2023-02-13T00:07:07;55.90;;;37.07;;
15553;SDS011;7878;44.632;10.942;2023-02-13T00:09:34;57.67;;;36.07;;
15553;SDS011;7878;44.632;10.942;2023-02-13T00:11:59;53.23;;;37.80;;
15553;SDS011;7878;44.632;10.942;2023-02-13T00:14:25;53.00;;;37.83;;
15553;SDS011;7878;44.632;10.942;2023-02-13T00:16:51;56.40;;;37.67;;
15553;SDS011;7878;44.632;10.942;2023-02-13T00:19:16;59.50;;;38.67;;
15553;SDS011;7878;44.632;10.942;2023-02-13T00:21:42;55.53;;;38.43;;
15553;SDS011;7878;44.632;10.942;2023-02-13T00:24:08;60.33;;;39.80;;
15553;SDS011;7878;44.632;10.942;2023-02-13T00:26:33;54.73;;;39.63;;
15553;SDS011;7878;44.632;10.942;2023-02-13T00:28:59;57.73;;;39.13;;
15553;SDS011;7878;44.632;10.942;2023-02-13T00:31:25;60.33;;;39.70;;
15553;SDS011;7878;44.632;10.942;2023-02-13T00:33:50;58.30;;;39.63;;
15553;SDS011;7878;44.632;10.942;2023-02-13T00:36:17;59.07;;;38.30;;
15553;SDS011;7878;44.632;10.942;2023-02-13T00:38:44;59.07;;;39.33;;
15553;SDS011;7878;44.632;10.942;2023-02-13T00:41:10;59.10;;;40.20;;
15553;SDS011;7878;44.632;10.942;2023-02-13T00:43:37;57.93;;;38.40;;
15553;SDS011;7878;44.632;10.942;2023-02-13T00:46:03;54.73;;;37.73;;
15553;SDS011;7878;44.632;10.942;2023-02-13T00:48:30;59.77;;;39.00;;
15553;SDS011;7878;44.632;10.942;2023-02-13T00:50:57;54.23;;;38.50;;
15553;SDS011;7878;44.632;10.942;2023-02-13T00:53:24;57.67;;;39.10;;
15553;SDS011;7878;44.632;10.942;2023-02-13T00:55:50;54.87;;;37.77;;
15553;SDS011;7878;44.632;10.942;2023-02-13T00:58:17;61.13;;;39.70;;
15553;SDS011;7878;44.632;10.942;2023-02-13T01:00:44;53.07;;;36.50;;
15553;SDS011;7878;44.632;10.942;2023-02-13T01:03:11;59.83;;;40.07;;
15553;SDS011;7878;44.632;10.942;2023-02-13T01:05:37;59.63;;;39.43;;
15553;SDS011;7878;44.632;10.942;2023-02-13T01:08:04;57.23;;;39.33;;
15553;SDS011;7878;44.632;10.942;2023-02-13T01:10:29;60.10;;;39.77;;
15553;SDS011;7878;44.632;10.942;2023-02-13T01:12:55;61.53;;;39.50;;
15553;SDS011;7878;44.632;10.942;2023-02-13T01:15:21;52.97;;;38.83;;
15553;SDS011;7878;44.632;10.942;2023-02-13T01:17:47;57.87;;;40.53;;
15553;SDS011;7878;44.632;10.942;2023-02-13T01:20:13;59.40;;;39.90;;
15553;SDS011;7878;44.632;10.942;2023-02-13T01:22:39;58.77;;;40.53;;
15553;SDS011;7878;44.632;10.942;2023-02-13T01:25:08;58.33;;;39.80;;
15553;SDS011;7878;44.632;10.942;2023-02-13T01:27:34;56.67;;;39.53;;
15553;SDS011;7878;44.632;10.942;2023-02-13T01:29:59;59.67;;;39.53;;
15553;SDS011;7878;44.632;10.942;2023-02-13T01:32:25;58.77;;;38.93;;
15553;SDS011;7878;44.632;10.942;2023-02-13T01:34:51;56.90;;;38.63;;
15553;SDS011;7878;44.632;10.942;2023-02-13T01:37:16;58.67;;;39.23;;
15553;SDS011;7878;44.632;10.942;2023-02-13T01:39:43;64.37;;;40.23;;
15553;SDS011;7878;44.632;10.942;2023-02-13T01:42:15;57.13;;;39.13;;
15553;SDS011;7878;44.632;10.942;2023-02-13T01:44:53;58.80;;;39.90;;
15553;SDS011;7878;44.632;10.942;2023-02-13T01:47:38;60.83;;;38.70;;
15553;SDS011;7878;44.632;10.942;2023-02-13T01:53:08;59.00;;;39.97;;
15553;SDS011;7878;44.632;10.942;2023-02-13T01:55:41;57.80;;;40.00;;
15553;SDS011;7878;44.632;10.942;2023-02-13T01:58:13;62.37;;;41.53;;
15553;SDS011;7878;44.632;10.942;2023-02-13T02:00:42;66.60;;;41.30;;
15553;SDS011;7878;44.632;10.942;2023-02-13T02:03:16;62.63;;;41.93;;
15553;SDS011;7878;44.632;10.942;2023-02-13T02:05:48;64.60;;;41.50;;
15553;SDS011;7878;44.632;10.942;2023-02-13T02:08:15;60.40;;;40.87;;
15553;SDS011;7878;44.632;10.942;2023-02-13T02:10:43;60.27;;;40.37;;
15553;SDS011;7878;44.632;10.942;2023-02-13T02:15:39;62.03;;;41.33;;
15553;SDS011;7878;44.632;10.942;2023-02-13T02:18:16;60.20;;;40.17;;
15553;SDS011;7878;44.632;10.942;2023-02-13T02:39:51;57.23;;;41.67;;
15553;SDS011;7878;44.632;10.942;2023-02-13T02:45:19;70.83;;;42.27;;
15553;SDS011;7878;44.632;10.942;2023-02-13T02:48:08;66.93;;;43.37;;
15553;SDS011;7878;44.632;10.942;2023-02-13T02:54:31;66.70;;;42.67;;
15553;SDS011;7878;44.632;10.942;2023-02-13T02:57:28;62.40;;;42.27;;
15553;SDS011;7878;44.632;10.942;2023-02-13T03:00:16;71.10;;;44.07;;
15553;SDS011;7878;44.632;10.942;2023-02-13T03:03:08;67.73;;;41.87;;
15553;SDS011;7878;44.632;10.942;2023-02-13T03:06:00;61.57;;;42.63;;
15553;SDS011;7878;44.632;10.942;2023-02-13T03:08:39;63.30;;;42.10;;
15553;SDS011;7878;44.632;10.942;2023-02-13T03:11:27;64.90;;;42.40;;
15553;SDS011;7878;44.632;10.942;2023-02-13T03:14:12;64.60;;;43.00;;
15553;SDS011;7878;44.632;10.942;2023-02-13T03:16:42;62.20;;;42.20;;
15553;SDS011;7878;44.632;10.942;2023-02-13T03:23:02;69.97;;;44.73;;
15553;SDS011;7878;44.632;10.942;2023-02-13T03:28:22;61.17;;;40.43;;
15553;SDS011;7878;44.632;10.942;2023-02-13T03:34:01;68.43;;;43.63;;
15553;SDS011;7878;44.632;10.942;2023-02-13T03:36:40;59.20;;;41.13;;
15553;SDS011;7878;44.632;10.942;2023-02-13T03:39:42;60.33;;;39.37;;
15553;SDS011;7878;44.632;10.942;2023-02-13T03:42:20;61.23;;;39.30;;
15553;SDS011;7878;44.632;10.942;2023-02-13T03:44:52;56.37;;;37.80;;
15553;SDS011;7878;44.632;10.942;2023-02-13T03:47:41;64.07;;;38.00;;
15553;SDS011;7878;44.632;10.942;2023-02-13T03:50:07;65.33;;;38.73;;
15553;SDS011;7878;44.632;10.942;2023-02-13T03:52:38;59.33;;;37.97;;
15553;SDS011;7878;44.632;10.942;2023-02-13T03:55:12;58.80;;;37.10;;
15553;SDS011;7878;44.632;10.942;2023-02-13T03:58:02;60.63;;;37.67;;
15553;SDS011;7878;44.632;10.942;2023-02-13T04:01:00;60.87;;;38.27;;
15553;SDS011;7878;44.632;10.942;2023-02-13T04:03:39;58.50;;;38.67;;
15553;SDS011;7878;44.632;10.942;2023-02-13T04:06:13;57.90;;;39.57;;
15553;SDS011;7878;44.632;10.942;2023-02-13T04:08:43;60.77;;;39.97;;
15553;SDS011;7878;44.632;10.942;2023-02-13T04:14:06;58.90;;;40.00;;
15553;SDS011;7878;44.632;10.942;2023-02-13T04:16:46;60.03;;;42.40;;
15553;SDS011;7878;44.632;10.942;2023-02-13T04:19:16;62.07;;;40.87;;
15553;SDS011;7878;44.632;10.942;2023-02-13T04:21:42;65.60;;;41.27;;
15553;SDS011;7878;44.632;10.942;2023-02-13T04:24:08;61.40;;;42.33;;
15553;SDS011;7878;44.632;10.942;2023-02-13T04:26:35;69.50;;;42.43;;
15553;SDS011;7878;44.632;10.942;2023-02-13T04:29:03;62.73;;;42.00;;
15553;SDS011;7878;44.632;10.942;2023-02-13T04:31:29;65.43;;;43.23;;
15553;SDS011;7878;44.632;10.942;2023-02-13T04:33:55;61.90;;;42.90;;
15553;SDS011;7878;44.632;10.942;2023-02-13T04:36:21;68.80;;;44.03;;
15553;SDS011;7878;44.632;10.942;2023-02-13T04:38:46;75.70;;;44.43;;
15553;SDS011;7878;44.632;10.942;2023-02-13T04:41:12;70.70;;;44.10;;
15553;SDS011;7878;44.632;10.942;2023-02-13T04:43:38;63.83;;;42.03;;
15553;SDS011;7878;44.632;10.942;2023-02-13T04:46:04;66.40;;;44.53;;
15553;SDS011;7878;44.632;10.942;2023-02-13T04:48:30;70.70;;;42.70;;
15553;SDS011;7878;44.632;10.942;2023-02-13T04:50:55;64.70;;;43.53;;
15553;SDS011;7878;44.632;10.942;2023-02-13T04:53:21;70.80;;;44.13;;
15553;SDS011;7878;44.632;10.942;2023-02-13T04:55:46;65.33;;;42.80;;
15553;SDS011;7878;44.632;10.942;2023-02-13T04:58:12;64.47;;;42.93;;
15553;SDS011;7878;44.632;10.942;2023-02-13T05:00:38;59.80;;;41.93;;
15553;SDS011;7878;44.632;10.942;2023-02-13T05:03:05;65.47;;;42.03;;
15553;SDS011;7878;44.632;10.942;2023-02-13T05:05:32;66.90;;;43.07;;
15553;SDS011;7878;44.632;10.942;2023-02-13T05:07:59;65.77;;;43.57;;
15553;SDS011;7878;44.632;10.942;2023-02-13T05:10:24;66.20;;;43.33;;
15553;SDS011;7878;44.632;10.942;2023-02-13T05:12:50;70.13;;;44.17;;
15553;SDS011;7878;44.632;10.942;2023-02-13T05:15:16;66.80;;;43.50;;
15553;SDS011;7878;44.632;10.942;2023-02-13T05:17:42;63.77;;;42.73;;
15553;SDS011;7878;44.632;10.942;2023-02-13T05:20:09;68.40;;;43.00;;
15553;SDS011;7878;44.632;10.942;2023-02-13T05:22:35;64.07;;;42.63;;
15553;SDS011;7878;44.632;10.942;2023-02-13T05:25:20;60.70;;;42.17;;
15553;SDS011;7878;44.632;10.942;2023-02-13T05:27:45;70.80;;;45.30;;
15553;SDS011;7878;44.632;10.942;2023-02-13T05:30:11;63.67;;;41.87;;
15553;SDS011;7878;44.632;10.942;2023-02-13T05:32:37;74.90;;;43.63;;
15553;SDS011;7878;44.632;10.942;2023-02-13T05:35:03;72.27;;;43.43;;
15553;SDS011;7878;44.632;10.942;2023-02-13T05:37:29;64.17;;;43.40;;
15553;SDS011;7878;44.632;10.942;2023-02-13T05:39:55;69.10;;;42.90;;
15553;SDS011;7878;44.632;10.942;2023-02-13T05:42:21;71.57;;;42.83;;
15553;SDS011;7878;44.632;10.942;2023-02-13T05:44:47;71.10;;;43.47;;
15553;SDS011;7878;44.632;10.942;2023-02-13T05:47:12;70.33;;;43.77;;
15553;SDS011;7878;44.632;10.942;2023-02-13T05:49:38;74.53;;;43.73;;
15553;SDS011;7878;44.632;10.942;2023-02-13T05:52:03;69.07;;;42.40;;
15553;SDS011;7878;44.632;10.942;2023-02-13T05:54:29;70.80;;;42.07;;
15553;SDS011;7878;44.632;10.942;2023-02-13T05:56:55;67.60;;;42.63;;
15553;SDS011;7878;44.632;10.942;2023-02-13T05:59:20;67.97;;;41.80;;
15553;SDS011;7878;44.632;10.942;2023-02-13T06:01:46;67.73;;;42.90;;
15553;SDS011;7878;44.632;10.942;2023-02-13T06:04:12;71.03;;;42.10;;
15553;SDS011;7878;44.632;10.942;2023-02-13T06:06:37;66.17;;;42.67;;
15553;SDS011;7878;44.632;10.942;2023-02-13T06:09:03;69.03;;;43.87;;
15553;SDS011;7878;44.632;10.942;2023-02-13T06:11:29;68.23;;;42.23;;
15553;SDS011;7878;44.632;10.942;2023-02-13T06:13:55;66.93;;;42.17;;
15553;SDS011;7878;44.632;10.942;2023-02-13T06:16:20;63.30;;;41.50;;
15553;SDS011;7878;44.632;10.942;2023-02-13T06:18:46;68.63;;;41.83;;
15553;SDS011;7878;44.632;10.942;2023-02-13T06:21:12;67.90;;;41.67;;
15553;SDS011;7878;44.632;10.942;2023-02-13T06:23:38;67.57;;;41.60;;
15553;SDS011;7878;44.632;10.942;2023-02-13T06:26:04;61.13;;;41.07;;
15553;SDS011;7878;44.632;10.942;2023-02-13T06:28:31;63.80;;;42.97;;
15553;SDS011;7878;44.632;10.942;2023-02-13T06:30:57;71.67;;;43.07;;
15553;SDS011;7878;44.632;10.942;2023-02-13T06:33:23;71.90;;;42.67;;
15553;SDS011;7878;44.632;10.942;2023-02-13T06:35:49;75.17;;;40.80;;
15553;SDS011;7878;44.632;10.942;2023-02-13T06:38:15;69.67;;;42.07;;
15553;SDS011;7878;44.632;10.942;2023-02-13T06:40:43;64.33;;;41.93;;
15553;SDS011;7878;44.632;10.942;2023-02-13T06:43:12;69.17;;;40.63;;
15553;SDS011;7878;44.632;10.942;2023-02-13T06:45:38;68.17;;;41.53;;
15553;SDS011;7878;44.632;10.942;2023-02-13T06:48:04;63.27;;;41.77;;
15553;SDS011;7878;44.632;10.942;2023-02-13T06:50:30;67.20;;;39.30;;
15553;SDS011;7878;44.632;10.942;2023-02-13T06:52:56;65.37;;;40.73;;
15553;SDS011;7878;44.632;10.942;2023-02-13T06:55:21;64.27;;;40.83;;
15553;SDS011;7878;44.632;10.942;2023-02-13T06:57:47;76.10;;;40.87;;
15553;SDS011;7878;44.632;10.942;2023-02-13T07:00:13;73.57;;;42.80;;
15553;SDS011;7878;44.632;10.942;2023-02-13T07:02:41;62.90;;;39.87;;
15553;SDS011;7878;44.632;10.942;2023-02-13T07:05:08;69.27;;;38.60;;
15553;SDS011;7878;44.632;10.942;2023-02-13T07:07:35;66.83;;;39.33;;
15553;SDS011;7878;44.632;10.942;2023-02-13T07:10:03;64.20;;;40.67;;
15553;SDS011;7878;44.632;10.942;2023-02-13T07:12:31;64.60;;;39.33;;
15553;SDS011;7878;44.632;10.942;2023-02-13T07:14:57;54.80;;;35.83;;
15553;SDS011;7878;44.632;10.942;2023-02-13T07:17:23;59.27;;;37.63;;
15553;SDS011;7878;44.632;10.942;2023-02-13T07:19:50;67.37;;;37.93;;
15553;SDS011;7878;44.632;10.942;2023-02-13T07:22:16;65.47;;;37.07;;
15553;SDS011;7878;44.632;10.942;2023-02-13T07:24:42;54.93;;;36.57;;
15553;SDS011;7878;44.632;10.942;2023-02-13T07:27:08;56.50;;;36.03;;
15553;SDS011;7878;44.632;10.942;2023-02-13T07:29:33;59.83;;;36.27;;
15553;SDS011;7878;44.632;10.942;2023-02-13T07:31:59;56.47;;;34.83;;
15553;SDS011;7878;44.632;10.942;2023-02-13T07:34:25;60.27;;;35.23;;
15553;SDS011;7878;44.632;10.942;2023-02-13T07:36:50;60.03;;;35.53;;
15553;SDS011;7878;44.632;10.942;2023-02-13T07:39:16;62.03;;;36.50;;
15553;SDS011;7878;44.632;10.942;2023-02-13T07:41:42;65.00;;;36.43;;
15553;SDS011;7878;44.632;10.942;2023-02-13T07:44:07;63.43;;;38.33;;
15553;SDS011;7878;44.632;10.942;2023-02-13T07:46:33;56.97;;;36.50;;
15553;SDS011;7878;44.632;10.942;2023-02-13T07:48:59;55.03;;;36.27;;
15553;SDS011;7878;44.632;10.942;2023-02-13T07:51:24;56.60;;;37.00;;
15553;SDS011;7878;44.632;10.942;2023-02-13T07:53:50;58.27;;;37.07;;
15553;SDS011;7878;44.632;10.942;2023-02-13T07:56:18;61.33;;;38.27;;
15553;SDS011;7878;44.632;10.942;2023-02-13T07:58:44;57.37;;;35.70;;
15553;SDS011;7878;44.632;10.942;2023-02-13T08:01:11;57.30;;;36.57;;
15553;SDS011;7878;44.632;10.942;2023-02-13T08:03:38;54.00;;;37.67;;
15553;SDS011;7878;44.632;10.942;2023-02-13T08:06:04;55.70;;;37.00;;
15553;SDS011;7878;44.632;10.942;2023-02-13T08:08:31;59.23;;;37.77;;
15553;SDS011;7878;44.632;10.942;2023-02-13T08:11:01;63.07;;;38.70;;
15553;SDS011;7878;44.632;10.942;2023-02-13T08:13:48;58.73;;;36.67;;
15553;SDS011;7878;44.632;10.942;2023-02-13T08:16:14;55.43;;;37.23;;
15553;SDS011;7878;44.632;10.942;2023-02-13T08:18:40;54.57;;;37.07;;
15553;SDS011;7878;44.632;10.942;2023-02-13T08:21:05;58.37;;;39.53;;
15553;SDS011;7878;44.632;10.942;2023-02-13T08:23:31;60.10;;;38.73;;
15553;SDS011;7878;44.632;10.942;2023-02-13T08:26:00;56.83;;;39.17;;
15553;SDS011;7878;44.632;10.942;2023-02-13T08:28:27;60.00;;;39.70;;
15553;SDS011;7878;44.632;10.942;2023-02-13T08:30:53;58.07;;;38.17;;
15553;SDS011;7878;44.632;10.942;2023-02-13T08:33:19;57.13;;;39.00;;
15553;SDS011;7878;44.632;10.942;2023-02-13T08:35:45;56.63;;;40.00;;
15553;SDS011;7878;44.632;10.942;2023-02-13T08:38:10;54.87;;;39.83;;
15553;SDS011;7878;44.632;10.942;2023-02-13T08:40:36;57.17;;;41.30;;
15553;SDS011;7878;44.632;10.942;2023-02-13T08:43:02;65.13;;;42.87;;
15553;SDS011;7878;44.632;10.942;2023-02-13T08:45:29;59.87;;;43.73;;
15553;SDS011;7878;44.632;10.942;2023-02-13T08:47:57;58.30;;;43.10;;
15553;SDS011;7878;44.632;10.942;2023-02-13T08:50:23;66.57;;;45.50;;
15553;SDS011;7878;44.632;10.942;2023-02-13T08:52:50;71.50;;;47.87;;
15553;SDS011;7878;44.632;10.942;2023-02-13T08:55:16;63.40;;;46.00;;
15553;SDS011;7878;44.632;10.942;2023-02-13T08:57:41;56.33;;;43.77;;
15553;SDS011;7878;44.632;10.942;2023-02-13T09:00:07;54.63;;;41.77;;
15553;SDS011;7878;44.632;10.942;2023-02-13T09:02:33;58.60;;;42.80;;
15553;SDS011;7878;44.632;10.942;2023-02-13T09:04:59;61.03;;;42.83;;
15553;SDS011;7878;44.632;10.942;2023-02-13T09:07:24;59.30;;;45.67;;
15553;SDS011;7878;44.632;10.942;2023-02-13T09:09:50;62.50;;;46.63;;
15553;SDS011;7878;44.632;10.942;2023-02-13T09:12:16;63.83;;;46.73;;
15553;SDS011;7878;44.632;10.942;2023-02-13T09:14:41;57.03;;;46.33;;
15553;SDS011;7878;44.632;10.942;2023-02-13T09:17:07;56.73;;;46.53;;
15553;SDS011;7878;44.632;10.942;2023-02-13T09:19:33;64.47;;;47.43;;
15553;SDS011;7878;44.632;10.942;2023-02-13T09:21:58;59.23;;;46.87;;
15553;SDS011;7878;44.632;10.942;2023-02-13T09:24:24;63.03;;;47.23;;
15553;SDS011;7878;44.632;10.942;2023-02-13T09:26:50;58.73;;;47.47;;
15553;SDS011;7878;44.632;10.942;2023-02-13T09:29:16;63.17;;;48.57;;
15553;SDS011;7878;44.632;10.942;2023-02-13T09:31:41;55.97;;;47.83;;
15553;SDS011;7878;44.632;10.942;2023-02-13T09:34:07;66.10;;;50.70;;
15553;SDS011;7878;44.632;10.942;2023-02-13T09:36:33;65.43;;;50.77;;
15553;SDS011;7878;44.632;10.942;2023-02-13T09:39:00;64.87;;;51.60;;
15553;SDS011;7878;44.632;10.942;2023-02-13T09:41:35;66.47;;;51.57;;
15553;SDS011;7878;44.632;10.942;2023-02-13T09:44:05;65.60;;;50.47;;
15553;SDS011;7878;44.632;10.942;2023-02-13T09:46:58;62.13;;;50.00;;
15553;SDS011;7878;44.632;10.942;2023-02-13T09:49:50;66.53;;;51.03;;
15553;SDS011;7878;44.632;10.942;2023-02-13T09:52:19;70.07;;;51.63;;
15553;SDS011;7878;44.632;10.942;2023-02-13T09:54:45;71.57;;;51.70;;
15553;SDS011;7878;44.632;10.942;2023-02-13T09:57:14;66.63;;;49.77;;
15553;SDS011;7878;44.632;10.942;2023-02-13T10:02:32;63.07;;;47.83;;
15553;SDS011;7878;44.632;10.942;2023-02-13T10:10:51;62.40;;;47.97;;
15553;SDS011;7878;44.632;10.942;2023-02-13T10:13:23;64.13;;;48.50;;
15553;SDS011;7878;44.632;10.942;2023-02-13T10:16:01;65.23;;;48.07;;
15553;SDS011;7878;44.632;10.942;2023-02-13T10:18:37;60.30;;;48.87;;
15553;SDS011;7878;44.632;10.942;2023-02-13T10:21:12;61.97;;;47.80;;
15553;SDS011;7878;44.632;10.942;2023-02-13T10:23:48;66.20;;;49.43;;
15553;SDS011;7878;44.632;10.942;2023-02-13T10:26:19;63.33;;;50.73;;
15553;SDS011;7878;44.632;10.942;2023-02-13T10:29:06;61.07;;;49.03;;
15553;SDS011;7878;44.632;10.942;2023-02-13T10:31:57;62.63;;;50.00;;
15553;SDS011;7878;44.632;10.942;2023-02-13T10:34:26;56.83;;;48.27;;
15553;SDS011;7878;44.632;10.942;2023-02-13T10:36:55;65.97;;;51.20;;
15553;SDS011;7878;44.632;10.942;2023-02-13T10:39:23;62.00;;;49.17;;
15553;SDS011;7878;44.632;10.942;2023-02-13T10:41:54;61.90;;;49.22;;
15553;SDS011;7878;44.632;10.942;2023-02-13T10:44:40;55.65;;;47.05;;
15553;SDS011;7878;44.632;10.942;2023-02-13T10:47:37;60.88;;;47.75;;
15553;SDS011;7878;44.632;10.942;2023-02-13T10:53:00;55.72;;;44.92;;
15553;SDS011;7878;44.632;10.942;2023-02-13T11:03:42;56.85;;;50.28;;
15553;SDS011;7878;44.632;10.942;2023-02-13T11:06:13;53.45;;;45.47;;
15553;SDS011;7878;44.632;10.942;2023-02-13T11:08:42;54.35;;;45.85;;
15553;SDS011;7878;44.632;10.942;2023-02-13T11:11:30;55.80;;;45.63;;
15553;SDS011;7878;44.632;10.942;2023-02-13T11:14:06;60.35;;;47.80;;
15553;SDS011;7878;44.632;10.942;2023-02-13T11:16:38;54.40;;;46.03;;
15553;SDS011;7878;44.632;10.942;2023-02-13T11:19:05;54.80;;;44.72;;
15553;SDS011;7878;44.632;10.942;2023-02-13T11:21:42;51.80;;;43.90;;
15553;SDS011;7878;44.632;10.942;2023-02-13T11:24:16;46.88;;;41.72;;
15553;SDS011;7878;44.632;10.942;2023-02-13T11:26:48;44.80;;;39.78;;
15553;SDS011;7878;44.632;10.942;2023-02-13T11:29:33;57.03;;;43.30;;
15553;SDS011;7878;44.632;10.942;2023-02-13T11:32:19;51.17;;;42.60;;
15553;SDS011;7878;44.632;10.942;2023-02-13T11:34:49;44.90;;;39.30;;
15553;SDS011;7878;44.632;10.942;2023-02-13T11:37:16;41.30;;;36.88;;
15553;SDS011;7878;44.632;10.942;2023-02-13T11:39:45;38.40;;;33.63;;
15553;SDS011;7878;44.632;10.942;2023-02-13T11:44:48;41.15;;;35.60;;
15553;SDS011;7878;44.632;10.942;2023-02-13T11:47:16;40.97;;;36.58;;
15553;SDS011;7878;44.632;10.942;2023-02-13T11:50:01;49.85;;;36.70;;
15553;SDS011;7878;44.632;10.942;2023-02-13T11:52:31;46.78;;;36.55;;
15553;SDS011;7878;44.632;10.942;2023-02-13T11:55:00;40.35;;;36.20;;
15553;SDS011;7878;44.632;10.942;2023-02-13T11:57:54;39.47;;;35.00;;
15553;SDS011;7878;44.632;10.942;2023-02-13T12:00:33;37.85;;;33.42;;
15553;SDS011;7878;44.632;10.942;2023-02-13T12:03:39;40.00;;;34.45;;
15553;SDS011;7878;44.632;10.942;2023-02-13T12:08:34;39.40;;;33.20;;
15553;SDS011;7878;44.632;10.942;2023-02-13T12:11:01;43.47;;;34.75;;
15553;SDS011;7878;44.632;10.942;2023-02-13T12:13:38;33.13;;;29.40;;
15553;SDS011;7878;44.632;10.942;2023-02-13T12:16:09;40.45;;;31.60;;
15553;SDS011;7878;44.632;10.942;2023-02-13T12:18:43;34.55;;;29.35;;
15553;SDS011;7878;44.632;10.942;2023-02-13T12:24:03;34.63;;;28.92;;
15553;SDS011;7878;44.632;10.942;2023-02-13T12:26:47;31.15;;;26.90;;
15553;SDS011;7878;44.632;10.942;2023-02-13T12:45:38;26.92;;;23.75;;
15553;SDS011;7878;44.632;10.942;2023-02-13T12:56:32;28.17;;;25.17;;
15553;SDS011;7878;44.632;10.942;2023-02-13T13:04:45;27.60;;;23.52;;
15553;SDS011;7878;44.632;10.942;2023-02-13T13:15:56;27.88;;;23.95;;
15553;SDS011;7878;44.632;10.942;2023-02-13T13:21:34;23.83;;;19.73;;
15553;SDS011;7878;44.632;10.942;2023-02-13T13:24:36;25.60;;;20.35;;
15553;SDS011;7878;44.632;10.942;2023-02-13T13:27:03;23.38;;;17.90;;
15553;SDS011;7878;44.632;10.942;2023-02-13T13:29:43;24.10;;;18.83;;
15553;SDS011;7878;44.632;10.942;2023-02-13T13:32:15;31.75;;;20.67;;
15553;SDS011;7878;44.632;10.942;2023-02-13T13:34:43;29.33;;;20.50;;
15553;SDS011;7878;44.632;10.942;2023-02-13T13:51:15;22.67;;;17.80;;
15553;SDS011;7878;44.632;10.942;2023-02-13T14:07:25;24.63;;;14.80;;
15553;SDS011;7878;44.632;10.942;2023-02-13T14:09:57;19.50;;;15.07;;
15553;SDS011;7878;44.632;10.942;2023-02-13T14:14:48;20.63;;;13.37;;
15553;SDS011;7878;44.632;10.942;2023-02-13T14:20:22;22.77;;;15.00;;
15553;SDS011;7878;44.632;10.942;2023-02-13T14:29:02;19.10;;;15.23;;
15553;SDS011;7878;44.632;10.942;2023-02-13T14:31:50;18.17;;;13.47;;
15553;SDS011;7878;44.632;10.942;2023-02-13T14:34:24;18.83;;;13.97;;
15553;SDS011;7878;44.632;10.942;2023-02-13T14:37:14;15.47;;;13.13;;
15553;SDS011;7878;44.632;10.942;2023-02-13T14:42:35;18.00;;;14.47;;
15553;SDS011;7878;44.632;10.942;2023-02-13T14:45:03;19.27;;;14.97;;
15553;SDS011;7878;44.632;10.942;2023-02-13T14:47:38;19.07;;;14.43;;
15553;SDS011;7878;44.632;10.942;2023-02-13T14:50:07;22.50;;;15.63;;
15553;SDS011;7878;44.632;10.942;2023-02-13T14:52:42;19.07;;;15.10;;
15553;SDS011;7878;44.632;10.942;2023-02-13T14:55:16;20.77;;;15.97;;
15553;SDS011;7878;44.632;10.942;2023-02-13T14:57:52;22.33;;;16.53;;
15553;SDS011;7878;44.632;10.942;2023-02-13T15:00:27;22.70;;;15.60;;
15553;SDS011;7878;44.632;10.942;2023-02-13T15:03:43;20.80;;;16.27;;
15553;SDS011;7878;44.632;10.942;2023-02-13T15:06:04;17.13;;;14.50;;
15553;SDS011;7878;44.632;10.942;2023-02-13T15:08:38;18.47;;;14.60;;
15553;SDS011;7878;44.632;10.942;2023-02-13T15:11:10;22.03;;;14.80;;
15553;SDS011;7878;44.632;10.942;2023-02-13T15:14:13;21.87;;;14.60;;
15553;SDS011;7878;44.632;10.942;2023-02-13T15:17:17;28.10;;;14.13;;
15553;SDS011;7878;44.632;10.942;2023-02-13T15:19:48;19.10;;;13.80;;
15553;SDS011;7878;44.632;10.942;2023-02-13T15:22:20;16.93;;;13.20;;
15553;SDS011;7878;44.632;10.942;2023-02-13T15:24:54;21.87;;;14.77;;
15553;SDS011;7878;44.632;10.942;2023-02-13T15:27:23;22.63;;;15.10;;
15553;SDS011;7878;44.632;10.942;2023-02-13T15:30:02;22.43;;;14.70;;
15553;SDS011;7878;44.632;10.942;2023-02-13T15:32:40;18.77;;;13.67;;
15553;SDS011;7878;44.632;10.942;2023-02-13T15:35:39;21.70;;;14.47;;
15553;SDS011;7878;44.632;10.942;2023-02-13T15:37:59;25.50;;;14.23;;
15553;SDS011;7878;44.632;10.942;2023-02-13T15:40:41;25.40;;;14.73;;
15553;SDS011;7878;44.632;10.942;2023-02-13T15:43:15;19.67;;;12.97;;
15553;SDS011;7878;44.632;10.942;2023-02-13T15:45:47;20.90;;;13.63;;
15553;SDS011;7878;44.632;10.942;2023-02-13T15:48:15;25.10;;;14.70;;
15553;SDS011;7878;44.632;10.942;2023-02-13T15:50:42;21.57;;;13.90;;
15553;SDS011;7878;44.632;10.942;2023-02-13T15:53:14;22.03;;;13.43;;
15553;SDS011;7878;44.632;10.942;2023-02-13T15:55:53;21.80;;;13.67;;
15553;SDS011;7878;44.632;10.942;2023-02-13T15:58:27;21.17;;;13.70;;
15553;SDS011;7878;44.632;10.942;2023-02-13T16:00:55;22.90;;;14.80;;
15553;SDS011;7878;44.632;10.942;2023-02-13T16:03:25;22.53;;;14.23;;
15553;SDS011;7878;44.632;10.942;2023-02-13T16:05:51;28.70;;;15.23;;
15553;SDS011;7878;44.632;10.942;2023-02-13T16:08:31;23.53;;;15.10;;
15553;SDS011;7878;44.632;10.942;2023-02-13T16:11:18;26.07;;;14.30;;
15553;SDS011;7878;44.632;10.942;2023-02-13T16:14:35;27.00;;;15.43;;
15553;SDS011;7878;44.632;10.942;2023-02-13T16:16:59;33.40;;;16.57;;
15553;SDS011;7878;44.632;10.942;2023-02-13T16:19:35;25.17;;;15.17;;
15553;SDS011;7878;44.632;10.942;2023-02-13T16:27:47;32.43;;;17.23;;
15553;SDS011;7878;44.632;10.942;2023-02-13T16:35:43;29.77;;;17.00;;
15553;SDS011;7878;44.632;10.942;2023-02-13T16:44:00;31.93;;;16.20;;
15553;SDS011;7878;44.632;10.942;2023-02-13T16:46:40;42.43;;;19.20;;
15553;SDS011;7878;44.632;10.942;2023-02-13T16:49:15;37.97;;;17.97;;
15553;SDS011;7878;44.632;10.942;2023-02-13T16:54:25;42.57;;;18.70;;
15553;SDS011;7878;44.632;10.942;2023-02-13T17:07:16;47.07;;;20.47;;
15553;SDS011;7878;44.632;10.942;2023-02-13T17:09:44;51.17;;;19.87;;
15553;SDS011;7878;44.632;10.942;2023-02-13T17:12:15;42.67;;;20.40;;
15553;SDS011;7878;44.632;10.942;2023-02-13T17:14:42;48.67;;;21.80;;
15553;SDS011;7878;44.632;10.942;2023-02-13T17:17:12;47.90;;;20.47;;
15553;SDS011;7878;44.632;10.942;2023-02-13T17:19:43;48.57;;;20.10;;
15553;SDS011;7878;44.632;10.942;2023-02-13T17:22:14;37.63;;;20.07;;
15553;SDS011;7878;44.632;10.942;2023-02-13T17:24:47;50.07;;;19.60;;
15553;SDS011;7878;44.632;10.942;2023-02-13T17:27:12;52.13;;;20.07;;
15553;SDS011;7878;44.632;10.942;2023-02-13T17:29:38;46.23;;;20.03;;
15553;SDS011;7878;44.632;10.942;2023-02-13T17:32:04;45.10;;;20.03;;
15553;SDS011;7878;44.632;10.942;2023-02-13T17:34:30;62.50;;;20.87;;
15553;SDS011;7878;44.632;10.942;2023-02-13T17:36:55;51.13;;;21.93;;
15553;SDS011;7878;44.632;10.942;2023-02-13T17:39:21;58.93;;;19.87;;
15553;SDS011;7878;44.632;10.942;2023-02-13T17:41:47;38.17;;;19.50;;
15553;SDS011;7878;44.632;10.942;2023-02-13T17:44:12;50.83;;;20.30;;
15553;SDS011;7878;44.632;10.942;2023-02-13T17:46:38;60.20;;;20.33;;
15553;SDS011;7878;44.632;10.942;2023-02-13T17:49:04;46.10;;;20.27;;